Time;durP1;ratioP1;P1;durP2;ratioP2;P2;SDS_P1;SDS_P2;PMS_P1;PMS_P2;Temp;Humidity;BMP_temperature;BMP_pressure;BME280_temperature;BME280_humidity;BME280_pressure;Samples;Min_cycle;Max_cycle;Signal;HPM_P1;HPM_P2
2020/12/18 00:00:59;;;;;;;23.33;14.13;;;;;;;;;;4387294;32;20265;-66
2020/12/18 00:03:25;;;;;;;19.07;13.37;;;;;;;;;;4385388;32;20289;-61
2020/12/18 00:05:52;;;;;;;17.63;12.57;;;;;;;;;;4388413;32;20337;-62
2020/12/18 00:08:17;;;;;;;17.10;11.17;;;;;;;;;;4377826;32;20246;-62
2020/12/18 00:10:43;;;;;;;15.03;11.00;;;;;;;;;;4385204;32;20279;-63
2020/12/18 00:13:08;;;;;;;14.63;10.20;;;;;;;;;;4377387;32;20877;-64
2020/12/18 00:15:34;;;;;;;16.00;12.53;;;;;;;;;;4388573;32;20206;-63
2020/12/18 00:18:00;;;;;;;25.17;11.00;;;;;;;;;;4384413;32;20226;-63
2020/12/18 00:20:26;;;;;;;10.73;9.27;;;;;;;;;;4387057;32;20843;-64
2020/12/18 00:22:51;;;;;;;14.37;9.63;;;;;;;;;;4381162;32;20238;-63
2020/12/18 00:25:17;;;;;;;15.07;10.30;;;;;;;;;;4387090;32;20520;-64
2020/12/18 00:27:43;;;;;;;24.90;13.70;;;;;;;;;;4382033;32;20234;-63
2020/12/18 00:30:10;;;;;;;19.27;11.90;;;;;;;;;;4373167;32;20304;-63
2020/12/18 00:32:39;;;;;;;15.23;10.70;;;;;;;;;;4386318;32;20273;-63
2020/12/18 00:35:10;;;;;;;13.83;10.03;;;;;;;;;;4360845;32;20671;-61
2020/12/18 00:37:36;;;;;;;18.83;11.10;;;;;;;;;;4382380;32;20468;-62
2020/12/18 00:40:03;;;;;;;19.40;11.37;;;;;;;;;;4382707;32;20222;-62
2020/12/18 00:42:29;;;;;;;13.17;9.17;;;;;;;;;;4373754;32;20263;-62
2020/12/18 00:44:55;;;;;;;14.47;9.60;;;;;;;;;;4383648;32;20310;-62
2020/12/18 00:47:21;;;;;;;15.03;10.67;;;;;;;;;;4385974;32;20292;-62
2020/12/18 00:49:46;;;;;;;14.33;9.60;;;;;;;;;;4383230;32;20794;-60
2020/12/18 00:52:12;;;;;;;13.03;9.87;;;;;;;;;;4381959;32;20390;-60
2020/12/18 00:54:37;;;;;;;11.60;7.77;;;;;;;;;;4387411;32;20315;-60
2020/12/18 00:57:03;;;;;;;12.30;7.10;;;;;;;;;;4379903;32;20260;-59
2020/12/18 00:59:28;;;;;;;10.23;7.47;;;;;;;;;;4373425;32;20998;-60
2020/12/18 01:02:01;;;;;;;15.13;8.00;;;;;;;;;;4372391;32;20666;-60
2020/12/18 01:04:27;;;;;;;11.03;8.23;;;;;;;;;;4378277;32;20287;-60
2020/12/18 01:06:54;;;;;;;11.60;8.63;;;;;;;;;;4377535;32;20630;-59
2020/12/18 01:09:21;;;;;;;12.60;8.63;;;;;;;;;;4379380;32;20368;-61
2020/12/18 01:11:46;;;;;;;12.60;9.07;;;;;;;;;;4383296;32;20370;-63
2020/12/18 01:14:12;;;;;;;10.20;7.47;;;;;;;;;;4369869;32;20356;-60
2020/12/18 01:16:37;;;;;;;9.40;7.30;;;;;;;;;;4384883;32;20214;-60
2020/12/18 01:19:03;;;;;;;11.00;7.63;;;;;;;;;;4378862;32;20259;-60
2020/12/18 01:21:28;;;;;;;8.20;6.77;;;;;;;;;;4384760;32;20354;-59
2020/12/18 01:23:54;;;;;;;9.03;7.17;;;;;;;;;;4380011;32;20392;-59
2020/12/18 01:26:19;;;;;;;9.83;7.57;;;;;;;;;;4384745;32;20266;-60
2020/12/18 01:28:45;;;;;;;11.27;8.27;;;;;;;;;;4385662;32;20305;-59
2020/12/18 01:31:10;;;;;;;10.43;7.97;;;;;;;;;;4371906;32;20257;-59
2020/12/18 01:33:36;;;;;;;10.43;7.40;;;;;;;;;;4374448;32;20290;-59
2020/12/18 01:36:01;;;;;;;10.47;7.57;;;;;;;;;;4380157;32;20218;-59
2020/12/18 01:38:27;;;;;;;9.70;7.27;;;;;;;;;;4378862;32;20642;-59
2020/12/18 01:40:52;;;;;;;10.93;7.27;;;;;;;;;;4385421;32;20226;-59
2020/12/18 01:43:18;;;;;;;9.50;7.47;;;;;;;;;;4379063;32;20778;-59
2020/12/18 01:45:44;;;;;;;11.03;7.63;;;;;;;;;;4385247;32;20615;-59
2020/12/18 01:48:12;;;;;;;9.83;7.07;;;;;;;;;;4384864;32;20240;-59
2020/12/18 01:50:37;;;;;;;11.43;7.90;;;;;;;;;;4382698;32;20276;-59
2020/12/18 01:53:03;;;;;;;13.00;7.97;;;;;;;;;;4369320;32;20364;-60
2020/12/18 01:55:29;;;;;;;9.90;7.77;;;;;;;;;;4382589;32;20265;-59
2020/12/18 01:57:55;;;;;;;9.67;7.33;;;;;;;;;;4383887;32;20252;-59
2020/12/18 02:00:21;;;;;;;8.40;7.00;;;;;;;;;;4381342;32;20296;-59
2020/12/18 02:02:47;;;;;;;9.63;7.10;;;;;;;;;;4384878;32;20311;-60
2020/12/18 02:05:13;;;;;;;11.60;7.50;;;;;;;;;;4378573;32;20218;-60
2020/12/18 02:07:54;;;;;;;9.10;7.10;;;;;;;;;;4375561;32;20246;-59
2020/12/18 02:10:20;;;;;;;10.10;7.17;;;;;;;;;;4377403;32;20214;-59
2020/12/18 02:12:46;;;;;;;11.10;7.97;;;;;;;;;;4380626;32;20656;-66
2020/12/18 02:15:12;;;;;;;8.57;6.27;;;;;;;;;;4365052;32;20294;-66
2020/12/18 02:17:37;;;;;;;10.00;7.40;;;;;;;;;;4382384;32;20640;-66
2020/12/18 02:20:04;;;;;;;13.47;9.07;;;;;;;;;;4377814;32;20261;-66
2020/12/18 02:22:29;;;;;;;9.97;7.70;;;;;;;;;;4380842;32;20241;-62
2020/12/18 02:25:06;;;;;;;11.43;7.37;;;;;;;;;;4385860;32;20360;-61
2020/12/18 02:27:32;;;;;;;14.13;8.40;;;;;;;;;;4375722;32;20218;-61
2020/12/18 02:29:57;;;;;;;12.23;8.00;;;;;;;;;;4379471;32;20722;-61
2020/12/18 02:32:23;;;;;;;16.87;7.57;;;;;;;;;;4381170;32;20514;-61
2020/12/18 02:34:48;;;;;;;9.90;7.27;;;;;;;;;;4385505;32;20222;-61
2020/12/18 02:37:14;;;;;;;10.37;7.77;;;;;;;;;;4382373;32;20651;-61
2020/12/18 02:39:39;;;;;;;13.30;9.47;;;;;;;;;;4379066;32;20315;-60
2020/12/18 02:42:05;;;;;;;13.73;9.63;;;;;;;;;;4385206;32;20376;-60
2020/12/18 02:44:30;;;;;;;14.80;9.37;;;;;;;;;;4376414;32;20315;-61
2020/12/18 02:46:56;;;;;;;12.30;9.83;;;;;;;;;;4386363;32;20217;-61
2020/12/18 02:49:22;;;;;;;10.30;7.80;;;;;;;;;;4378723;32;20360;-62
2020/12/18 02:51:47;;;;;;;12.67;10.17;;;;;;;;;;4383684;32;20323;-61
2020/12/18 02:54:13;;;;;;;12.03;8.97;;;;;;;;;;4378818;32;20273;-61
2020/12/18 02:56:38;;;;;;;12.60;9.00;;;;;;;;;;4383018;32;20360;-63
2020/12/18 02:59:04;;;;;;;11.43;8.93;;;;;;;;;;4378854;32;20255;-63
2020/12/18 03:01:29;;;;;;;18.17;11.60;;;;;;;;;;4386226;32;20249;-63
2020/12/18 03:03:55;;;;;;;12.93;9.87;;;;;;;;;;4380142;32;20329;-66
2020/12/18 03:06:20;;;;;;;16.10;10.33;;;;;;;;;;4384860;32;20263;-65
2020/12/18 03:08:46;;;;;;;15.67;10.97;;;;;;;;;;4381988;32;20331;-65
2020/12/18 03:11:13;;;;;;;14.37;9.73;;;;;;;;;;4384487;32;20251;-64
2020/12/18 03:13:39;;;;;;;18.80;12.97;;;;;;;;;;4380402;32;20241;-64
2020/12/18 03:16:04;;;;;;;20.20;13.80;;;;;;;;;;4385157;32;20249;-65
2020/12/18 03:18:29;;;;;;;28.87;16.20;;;;;;;;;;4378647;32;20280;-64
2020/12/18 03:20:55;;;;;;;19.13;14.23;;;;;;;;;;4381409;32;20374;-64
2020/12/18 03:23:20;;;;;;;26.60;17.07;;;;;;;;;;4379806;32;20352;-64
2020/12/18 03:25:46;;;;;;;23.43;18.27;;;;;;;;;;4385370;32;20301;-64
2020/12/18 03:28:11;;;;;;;16.90;13.20;;;;;;;;;;4378640;32;20221;-64
2020/12/18 03:30:37;;;;;;;24.67;12.43;;;;;;;;;;4381369;32;20225;-65
2020/12/18 03:33:03;;;;;;;13.13;9.33;;;;;;;;;;4381314;32;20616;-64
2020/12/18 03:35:29;;;;;;;13.27;9.47;;;;;;;;;;4377774;32;20335;-64
2020/12/18 03:37:55;;;;;;;13.23;9.67;;;;;;;;;;4385046;32;20631;-63
2020/12/18 03:40:21;;;;;;;9.63;7.17;;;;;;;;;;4367379;32;20249;-66
2020/12/18 03:42:46;;;;;;;12.37;7.70;;;;;;;;;;4379797;32;20694;-64
2020/12/18 03:45:12;;;;;;;10.93;8.07;;;;;;;;;;4377410;32;20222;-64
2020/12/18 03:47:37;;;;;;;17.07;9.60;;;;;;;;;;4385101;32;20265;-64
2020/12/18 03:50:06;;;;;;;17.73;10.30;;;;;;;;;;4371632;32;20312;-64
2020/12/18 03:52:32;;;;;;;11.67;8.63;;;;;;;;;;4383335;32;20238;-64
2020/12/18 03:54:57;;;;;;;15.00;7.17;;;;;;;;;;4378568;32;20549;-65
2020/12/18 03:57:23;;;;;;;12.07;7.30;;;;;;;;;;4381400;32;20616;-65
2020/12/18 03:59:48;;;;;;;12.30;7.93;;;;;;;;;;4383034;32;20223;-66
2020/12/18 04:02:13;;;;;;;11.00;6.87;;;;;;;;;;4384930;32;20280;-64
2020/12/18 04:04:39;;;;;;;8.83;6.20;;;;;;;;;;4380723;32;20240;-63
2020/12/18 04:07:04;;;;;;;12.47;6.80;;;;;;;;;;4379746;32;20213;-64
2020/12/18 04:09:30;;;;;;;7.77;6.13;;;;;;;;;;4369235;32;20311;-63
2020/12/18 04:11:55;;;;;;;13.67;8.43;;;;;;;;;;4382481;32;20305;-63
2020/12/18 04:14:21;;;;;;;12.60;8.93;;;;;;;;;;4381535;32;20293;-63
2020/12/18 04:16:46;;;;;;;18.43;12.87;;;;;;;;;;4387681;32;20287;-65
2020/12/18 04:19:12;;;;;;;11.63;8.63;;;;;;;;;;4384353;32;20218;-63
2020/12/18 04:21:37;;;;;;;20.43;14.20;;;;;;;;;;4387373;32;20222;-64
2020/12/18 04:24:03;;;;;;;25.47;14.73;;;;;;;;;;4372335;32;20850;-64
2020/12/18 04:26:29;;;;;;;22.40;15.90;;;;;;;;;;4387244;32;20653;-64
2020/12/18 04:28:54;;;;;;;20.00;13.10;;;;;;;;;;4385772;32;20206;-64
2020/12/18 04:31:20;;;;;;;15.00;9.40;;;;;;;;;;4387159;32;20295;-63
2020/12/18 04:33:45;;;;;;;13.03;9.03;;;;;;;;;;4388001;32;20638;-63
2020/12/18 04:36:11;;;;;;;12.30;9.83;;;;;;;;;;4386844;32;20240;-65
2020/12/18 04:38:36;;;;;;;11.97;8.70;;;;;;;;;;4367648;32;20294;-63
2020/12/18 04:41:02;;;;;;;13.90;9.33;;;;;;;;;;4378303;32;20287;-64
2020/12/18 04:43:28;;;;;;;17.10;12.33;;;;;;;;;;4376406;32;20202;-63
2020/12/18 04:45:57;;;;;;;13.53;10.20;;;;;;;;;;4382208;32;20575;-64
2020/12/18 04:48:27;;;;;;;19.83;11.17;;;;;;;;;;4377197;32;20556;-64
2020/12/18 04:50:57;;;;;;;20.37;12.87;;;;;;;;;;4385458;32;20233;-63
2020/12/18 04:53:28;;;;;;;16.97;10.30;;;;;;;;;;4377029;32;20497;-64
2020/12/18 04:55:55;;;;;;;9.60;6.90;;;;;;;;;;4380170;32;20229;-64
2020/12/18 04:58:24;;;;;;;11.13;7.93;;;;;;;;;;4383048;32;20253;-64
2020/12/18 05:00:56;;;;;;;11.77;8.27;;;;;;;;;;4383422;32;20245;-62
2020/12/18 05:03:22;;;;;;;10.83;8.80;;;;;;;;;;4384602;32;20341;-62
2020/12/18 05:05:48;;;;;;;14.90;7.17;;;;;;;;;;4371739;32;20280;-64
2020/12/18 05:08:14;;;;;;;8.47;7.03;;;;;;;;;;4386279;32;20634;-61
2020/12/18 05:10:39;;;;;;;11.07;7.20;;;;;;;;;;4379497;32;20322;-62
2020/12/18 05:13:05;;;;;;;17.40;10.57;;;;;;;;;;4382924;32;20236;-63
2020/12/18 05:15:33;;;;;;;15.73;10.27;;;;;;;;;;4379110;32;20367;-63
2020/12/18 05:17:59;;;;;;;19.47;13.80;;;;;;;;;;4384078;32;20353;-62
2020/12/18 05:20:26;;;;;;;13.67;9.20;;;;;;;;;;4384600;32;20384;-62
2020/12/18 05:22:54;;;;;;;13.60;9.57;;;;;;;;;;4386454;32;20634;-62
2020/12/18 05:25:20;;;;;;;19.30;12.23;;;;;;;;;;4378737;32;20257;-63
2020/12/18 05:27:49;;;;;;;11.57;7.67;;;;;;;;;;4377545;32;20371;-68
2020/12/18 05:30:20;;;;;;;10.57;7.50;;;;;;;;;;4384152;32;20284;-68
2020/12/18 05:32:51;;;;;;;11.93;8.10;;;;;;;;;;4380727;32;20874;-62
2020/12/18 05:35:17;;;;;;;11.63;8.50;;;;;;;;;;4384813;32;20732;-62
2020/12/18 05:37:44;;;;;;;13.53;8.30;;;;;;;;;;4383299;32;20279;-63
2020/12/18 05:40:09;;;;;;;10.47;8.03;;;;;;;;;;4380003;32;20230;-62
2020/12/18 05:42:47;;;;;;;15.47;12.47;;;;;;;;;;4376298;32;20360;-62
2020/12/18 05:45:18;;;;;;;15.97;9.97;;;;;;;;;;4380820;32;20255;-65
2020/12/18 05:47:57;;;;;;;17.20;11.50;;;;;;;;;;4378992;32;20337;-63
2020/12/18 05:50:41;;;;;;;14.23;11.10;;;;;;;;;;4365679;32;20262;-63
2020/12/18 05:53:10;;;;;;;13.37;8.50;;;;;;;;;;4377027;32;20412;-62
2020/12/18 05:55:37;;;;;;;18.60;9.43;;;;;;;;;;4375463;32;20198;-60
2020/12/18 05:58:02;;;;;;;15.67;9.63;;;;;;;;;;4379049;32;20273;-60
2020/12/18 06:00:28;;;;;;;21.30;10.40;;;;;;;;;;4384984;32;20714;-60
2020/12/18 06:02:56;;;;;;;15.57;9.90;;;;;;;;;;4375615;32;20230;-60
2020/12/18 06:05:24;;;;;;;12.77;7.97;;;;;;;;;;4384814;32;20273;-59
2020/12/18 06:07:50;;;;;;;11.73;8.33;;;;;;;;;;4376510;32;20237;-60
2020/12/18 06:10:20;;;;;;;10.77;8.17;;;;;;;;;;4385732;32;20335;-59
2020/12/18 06:12:47;;;;;;;14.93;10.73;;;;;;;;;;4381033;32;20868;-61
2020/12/18 06:15:15;;;;;;;13.60;10.20;;;;;;;;;;4371991;32;20709;-61
2020/12/18 06:17:43;;;;;;;25.00;15.90;;;;;;;;;;4380796;32;20232;-61
2020/12/18 06:20:13;;;;;;;20.80;12.73;;;;;;;;;;4382531;32;20290;-61
2020/12/18 06:22:39;;;;;;;39.50;26.23;;;;;;;;;;4378135;32;20641;-61
2020/12/18 06:25:05;;;;;;;29.13;18.77;;;;;;;;;;4386660;32;20316;-62
2020/12/18 06:27:31;;;;;;;21.27;15.30;;;;;;;;;;4378635;32;20785;-62
2020/12/18 06:30:08;;;;;;;12.80;9.23;;;;;;;;;;4370799;32;20259;-60
2020/12/18 06:32:33;;;;;;;14.20;10.07;;;;;;;;;;4376588;32;20540;-62
2020/12/18 06:35:37;;;;;;;15.57;10.03;;;;;;;;;;4386216;32;20314;-61
2020/12/18 06:38:15;;;;;;;25.33;11.13;;;;;;;;;;4381989;32;20228;-60
2020/12/18 06:40:42;;;;;;;11.73;9.20;;;;;;;;;;4378771;32;20248;-62
2020/12/18 06:43:08;;;;;;;14.00;9.97;;;;;;;;;;4375425;32;20260;-59
2020/12/18 06:45:34;;;;;;;12.50;9.80;;;;;;;;;;4371798;32;20283;-59
2020/12/18 06:48:00;;;;;;;15.00;9.47;;;;;;;;;;4377464;32;20654;-60
2020/12/18 06:50:34;;;;;;;15.00;10.67;;;;;;;;;;4369811;32;20542;-60
2020/12/18 06:53:08;;;;;;;23.10;11.73;;;;;;;;;;4371583;32;20226;-61
2020/12/18 06:55:36;;;;;;;33.63;17.00;;;;;;;;;;4370454;32;20672;-61
2020/12/18 06:58:12;;;;;;;25.40;15.60;;;;;;;;;;4377061;32;20346;-60
2020/12/18 07:00:47;;;;;;;18.43;12.87;;;;;;;;;;4376008;32;20222;-61
2020/12/18 07:03:43;;;;;;;24.57;13.47;;;;;;;;;;4378119;32;20514;-63
2020/12/18 07:06:12;;;;;;;27.20;16.03;;;;;;;;;;4378258;32;20304;-63
2020/12/18 07:08:40;;;;;;;18.97;12.27;;;;;;;;;;4378166;32;20257;-62
2020/12/18 07:11:12;;;;;;;15.87;9.23;;;;;;;;;;4369266;32;20313;-62
2020/12/18 07:13:47;;;;;;;25.47;9.20;;;;;;;;;;4379177;32;20332;-61
2020/12/18 07:16:14;;;;;;;20.33;11.90;;;;;;;;;;4381633;32;20218;-62
2020/12/18 07:18:42;;;;;;;21.50;13.50;;;;;;;;;;4372234;32;20226;-63
2020/12/18 07:21:09;;;;;;;55.53;29.13;;;;;;;;;;4374059;32;20664;-63
2020/12/18 07:23:37;;;;;;;48.30;26.40;;;;;;;;;;4383157;32;20225;-62
2020/12/18 07:26:04;;;;;;;32.50;18.23;;;;;;;;;;4367725;32;20572;-63
2020/12/18 07:28:31;;;;;;;28.63;16.17;;;;;;;;;;4380388;32;20342;-62
2020/12/18 07:30:58;;;;;;;32.77;16.77;;;;;;;;;;4378751;32;20244;-61
2020/12/18 07:33:24;;;;;;;24.77;14.70;;;;;;;;;;4375080;32;20199;-63
2020/12/18 07:35:52;;;;;;;24.27;15.77;;;;;;;;;;4374538;32;20218;-63
2020/12/18 07:38:32;;;;;;;45.33;25.53;;;;;;;;;;4374499;32;20225;-63
2020/12/18 07:41:06;;;;;;;43.87;24.33;;;;;;;;;;4378490;32;20622;-64
2020/12/18 07:43:34;;;;;;;48.27;31.57;;;;;;;;;;4378080;32;20246;-63
2020/12/18 07:46:05;;;;;;;49.73;27.57;;;;;;;;;;4381358;32;20662;-63
2020/12/18 07:48:36;;;;;;;58.63;36.57;;;;;;;;;;4380670;32;20322;-62
2020/12/18 07:51:05;;;;;;;46.03;26.93;;;;;;;;;;4383374;32;20639;-64
2020/12/18 07:53:33;;;;;;;33.03;23.37;;;;;;;;;;4380658;32;20548;-64
2020/12/18 07:55:58;;;;;;;28.87;16.87;;;;;;;;;;4384288;32;20322;-62
2020/12/18 07:58:24;;;;;;;24.27;15.00;;;;;;;;;;4372194;32;20229;-62
2020/12/18 08:00:49;;;;;;;47.97;32.00;;;;;;;;;;4375846;32;20222;-62
2020/12/18 08:03:15;;;;;;;41.47;24.10;;;;;;;;;;4384716;32;20273;-61
2020/12/18 08:05:43;;;;;;;37.77;24.57;;;;;;;;;;4384209;32;20222;-62
2020/12/18 08:08:10;;;;;;;26.00;19.33;;;;;;;;;;4382617;32;20729;-64
2020/12/18 08:10:40;;;;;;;33.27;23.57;;;;;;;;;;4373784;32;20745;-64
2020/12/18 08:13:05;;;;;;;31.70;21.33;;;;;;;;;;4384263;32;20261;-65
2020/12/18 08:15:31;;;;;;;32.17;22.20;;;;;;;;;;4385757;32;20732;-65
2020/12/18 08:17:59;;;;;;;32.27;21.23;;;;;;;;;;4373459;32;20578;-65
2020/12/18 08:20:25;;;;;;;31.23;21.30;;;;;;;;;;4386854;32;20360;-65
2020/12/18 08:22:51;;;;;;;39.60;27.23;;;;;;;;;;4380997;32;20217;-64
2020/12/18 08:25:18;;;;;;;40.77;25.10;;;;;;;;;;4386963;32;20250;-64
2020/12/18 08:27:55;;;;;;;46.63;28.60;;;;;;;;;;4386873;32;20340;-65
2020/12/18 08:30:25;;;;;;;54.70;36.73;;;;;;;;;;4387273;32;20633;-66
2020/12/18 08:32:55;;;;;;;129.10;75.43;;;;;;;;;;4385972;32;20433;-63
2020/12/18 08:35:21;;;;;;;47.53;30.17;;;;;;;;;;4385023;32;20778;-63
2020/12/18 08:37:51;;;;;;;77.60;47.53;;;;;;;;;;4374740;32;20324;-65
2020/12/18 08:40:26;;;;;;;57.10;36.40;;;;;;;;;;4354484;32;20375;-63
2020/12/18 08:42:58;;;;;;;66.73;42.10;;;;;;;;;;4374773;32;20635;-62
2020/12/18 08:45:24;;;;;;;116.17;56.50;;;;;;;;;;4369515;32;20206;-64
2020/12/18 08:47:51;;;;;;;53.83;34.97;;;;;;;;;;4353925;32;20324;-63
2020/12/18 08:50:20;;;;;;;56.10;32.63;;;;;;;;;;4361616;32;20305;-63
2020/12/18 08:52:47;;;;;;;63.10;38.60;;;;;;;;;;4380631;32;20443;-63
2020/12/18 08:55:14;;;;;;;54.03;33.87;;;;;;;;;;4383224;32;20222;-67
2020/12/18 08:57:40;;;;;;;66.60;39.80;;;;;;;;;;4382575;32;20213;-66
2020/12/18 09:00:16;;;;;;;93.77;58.57;;;;;;;;;;4379854;32;20277;-66
2020/12/18 09:02:56;;;;;;;83.93;53.73;;;;;;;;;;4380828;32;20228;-67
2020/12/18 09:05:35;;;;;;;72.50;44.53;;;;;;;;;;4371229;32;20271;-67
2020/12/18 09:08:00;;;;;;;63.43;41.17;;;;;;;;;;4380320;32;20471;-67
2020/12/18 09:10:40;;;;;;;53.90;37.53;;;;;;;;;;4365875;32;20535;-66
2020/12/18 09:13:12;;;;;;;52.60;37.13;;;;;;;;;;4378040;32;20281;-67
2020/12/18 09:15:38;;;;;;;62.60;40.57;;;;;;;;;;4382776;32;20221;-63
2020/12/18 09:18:12;;;;;;;64.50;40.47;;;;;;;;;;4381459;32;20623;-64
2020/12/18 09:20:44;;;;;;;268.73;130.57;;;;;;;;;;4379205;32;20230;-64
2020/12/18 09:23:12;;;;;;;60.20;42.17;;;;;;;;;;4384303;32;20210;-63
2020/12/18 09:25:59;;;;;;;81.67;52.03;;;;;;;;;;4384927;32;20218;-62
2020/12/18 09:28:25;;;;;;;59.90;39.83;;;;;;;;;;4385488;32;20263;-62
2020/12/18 09:30:55;;;;;;;67.00;46.73;;;;;;;;;;4378323;32;20703;-63
2020/12/18 09:33:23;;;;;;;61.03;42.90;;;;;;;;;;4370663;32;20218;-63
2020/12/18 09:35:50;;;;;;;66.10;39.83;;;;;;;;;;4373195;32;20253;-63
2020/12/18 09:38:23;;;;;;;75.10;50.07;;;;;;;;;;4378898;32;20272;-62
2020/12/18 09:40:50;;;;;;;86.80;54.70;;;;;;;;;;4367003;32;20246;-66
2020/12/18 09:43:16;;;;;;;50.57;34.40;;;;;;;;;;4376421;32;20306;-67
2020/12/18 09:45:41;;;;;;;53.63;36.67;;;;;;;;;;4381412;32;20244;-66
2020/12/18 09:48:07;;;;;;;50.03;35.33;;;;;;;;;;4375925;32;20261;-65
2020/12/18 09:50:32;;;;;;;50.63;35.73;;;;;;;;;;4377696;32;20236;-67
2020/12/18 09:52:58;;;;;;;57.10;37.07;;;;;;;;;;4377638;32;20226;-66
2020/12/18 09:55:23;;;;;;;60.50;37.53;;;;;;;;;;4385526;32;20221;-65
2020/12/18 09:57:49;;;;;;;53.73;35.77;;;;;;;;;;4386077;32;20213;-66
2020/12/18 10:00:14;;;;;;;56.87;36.10;;;;;;;;;;4385354;32;20248;-65
2020/12/18 10:02:40;;;;;;;55.70;34.80;;;;;;;;;;4380273;32;20289;-65
2020/12/18 10:05:05;;;;;;;42.37;29.93;;;;;;;;;;4368830;32;20346;-64
2020/12/18 10:07:32;;;;;;;627.87;263.20;;;;;;;;;;4381896;32;20277;-63
2020/12/18 10:09:57;;;;;;;83.13;40.73;;;;;;;;;;4385850;32;20686;-64
2020/12/18 10:12:23;;;;;;;222.13;82.67;;;;;;;;;;4381739;32;20218;-64
2020/12/18 10:14:49;;;;;;;108.63;48.67;;;;;;;;;;4380211;32;20248;-63
2020/12/18 10:17:14;;;;;;;325.33;114.07;;;;;;;;;;4383532;32;20744;-62
2020/12/18 10:19:39;;;;;;;548.77;213.47;;;;;;;;;;4380284;32;20426;-63
2020/12/18 10:22:05;;;;;;;83.03;47.97;;;;;;;;;;4380338;32;20752;-63
2020/12/18 10:24:30;;;;;;;81.87;38.83;;;;;;;;;;4375553;32;20231;-63
2020/12/18 10:26:56;;;;;;;512.30;169.27;;;;;;;;;;4375452;32;20202;-62
2020/12/18 10:29:21;;;;;;;127.93;60.70;;;;;;;;;;4377299;32;20533;-62
2020/12/18 10:31:51;;;;;;;69.33;38.57;;;;;;;;;;4380965;32;20352;-63
2020/12/18 10:34:17;;;;;;;58.30;35.40;;;;;;;;;;4381802;32;20291;-63
2020/12/18 10:36:42;;;;;;;65.53;42.53;;;;;;;;;;4379677;32;20374;-63
2020/12/18 10:39:08;;;;;;;56.40;41.47;;;;;;;;;;4370785;32;20261;-61
2020/12/18 10:41:33;;;;;;;71.07;43.07;;;;;;;;;;4376984;32;20248;-62
2020/12/18 10:43:59;;;;;;;76.33;45.87;;;;;;;;;;4379196;32;20285;-64
2020/12/18 10:46:25;;;;;;;62.30;42.30;;;;;;;;;;4381152;32;20631;-64
2020/12/18 10:48:50;;;;;;;69.90;41.67;;;;;;;;;;4366759;32;20289;-64
2020/12/18 10:51:16;;;;;;;69.90;44.87;;;;;;;;;;4380208;32;20305;-64
2020/12/18 10:53:41;;;;;;;63.47;43.97;;;;;;;;;;4363958;32;20704;-66
2020/12/18 10:56:06;;;;;;;56.17;40.83;;;;;;;;;;4380937;32;20396;-63
2020/12/18 10:58:32;;;;;;;57.40;39.17;;;;;;;;;;4377296;32;20240;-64
2020/12/18 11:00:57;;;;;;;97.00;60.67;;;;;;;;;;4378138;32;20724;-65
2020/12/18 11:03:23;;;;;;;81.00;52.80;;;;;;;;;;4377575;32;20218;-65
2020/12/18 11:05:48;;;;;;;82.83;53.27;;;;;;;;;;4369106;32;20258;-66
2020/12/18 11:08:14;;;;;;;65.00;46.53;;;;;;;;;;4376152;32;20241;-65
2020/12/18 11:10:39;;;;;;;82.17;53.20;;;;;;;;;;4367046;32;20351;-65
2020/12/18 11:13:05;;;;;;;70.67;49.27;;;;;;;;;;4366313;32;20219;-66
2020/12/18 11:15:30;;;;;;;82.13;51.53;;;;;;;;;;4378432;32;20317;-66
2020/12/18 11:17:56;;;;;;;72.97;47.50;;;;;;;;;;4376619;32;20387;-66
2020/12/18 11:20:22;;;;;;;73.33;49.70;;;;;;;;;;4379052;32;20230;-66
2020/12/18 11:22:47;;;;;;;71.07;49.33;;;;;;;;;;4375599;32;20646;-63
2020/12/18 11:25:13;;;;;;;81.13;51.07;;;;;;;;;;4379738;32;20333;-65
2020/12/18 11:27:38;;;;;;;69.00;45.53;;;;;;;;;;4373803;32;20633;-65
2020/12/18 11:30:04;;;;;;;65.70;44.03;;;;;;;;;;4371718;32;20359;-64
2020/12/18 11:32:29;;;;;;;62.43;46.87;;;;;;;;;;4365878;32;20275;-65
2020/12/18 11:34:55;;;;;;;75.03;48.87;;;;;;;;;;4375514;32;20355;-64
2020/12/18 11:37:21;;;;;;;56.00;39.97;;;;;;;;;;4371978;32;20218;-65
2020/12/18 11:39:47;;;;;;;52.67;39.50;;;;;;;;;;4361845;32;20351;-66
2020/12/18 11:42:13;;;;;;;84.50;62.20;;;;;;;;;;4381230;32;20328;-64
2020/12/18 11:44:39;;;;;;;70.20;46.70;;;;;;;;;;4378821;32;20226;-65
2020/12/18 11:47:05;;;;;;;67.23;44.80;;;;;;;;;;4375092;32;20232;-64
2020/12/18 11:49:30;;;;;;;57.50;42.07;;;;;;;;;;4368302;32;20236;-64
2020/12/18 11:51:55;;;;;;;54.30;41.73;;;;;;;;;;4382694;32;20299;-62
2020/12/18 11:54:21;;;;;;;75.73;51.63;;;;;;;;;;4380395;32;20234;-65
2020/12/18 11:56:50;;;;;;;72.50;47.93;;;;;;;;;;4377274;32;20307;-64
2020/12/18 11:59:16;;;;;;;67.43;44.57;;;;;;;;;;4355685;32;20276;-64
2020/12/18 12:01:41;;;;;;;63.83;43.87;;;;;;;;;;4379466;32;20260;-64
2020/12/18 12:04:07;;;;;;;59.70;42.77;;;;;;;;;;4381290;32;20202;-65
2020/12/18 12:06:32;;;;;;;96.90;62.20;;;;;;;;;;4369960;32;20336;-64
2020/12/18 12:09:03;;;;;;;73.17;51.07;;;;;;;;;;4380984;32;20273;-64
2020/12/18 12:11:36;;;;;;;71.63;46.50;;;;;;;;;;4365932;32;20230;-64
2020/12/18 12:14:02;;;;;;;78.73;51.87;;;;;;;;;;4385889;32;20393;-64
2020/12/18 12:16:45;;;;;;;75.33;49.00;;;;;;;;;;4376522;32;20222;-64
2020/12/18 12:19:11;;;;;;;74.80;52.40;;;;;;;;;;4376502;32;20332;-65
2020/12/18 12:21:39;;;;;;;108.80;63.57;;;;;;;;;;4379644;32;20221;-63
2020/12/18 12:24:05;;;;;;;81.87;53.90;;;;;;;;;;4377705;32;20324;-64
2020/12/18 12:26:31;;;;;;;89.63;56.53;;;;;;;;;;4370428;32;20381;-65
2020/12/18 12:28:56;;;;;;;80.97;55.27;;;;;;;;;;4379959;32;20437;-64
2020/12/18 12:31:22;;;;;;;64.60;47.20;;;;;;;;;;4368924;32;20715;-64
2020/12/18 12:33:48;;;;;;;61.90;45.50;;;;;;;;;;4378254;32;20210;-64
2020/12/18 12:36:21;;;;;;;87.97;51.57;;;;;;;;;;4383135;32;20541;-64
2020/12/18 12:38:47;;;;;;;88.67;50.80;;;;;;;;;;4381686;32;20762;-65
2020/12/18 12:41:13;;;;;;;85.03;55.53;;;;;;;;;;4386170;32;20424;-64
2020/12/18 12:43:39;;;;;;;92.63;59.77;;;;;;;;;;4374015;32;20606;-66
2020/12/18 12:46:05;;;;;;;88.50;58.07;;;;;;;;;;4372321;32;20356;-66
2020/12/18 12:48:31;;;;;;;74.00;48.83;;;;;;;;;;4383039;32;20241;-66
2020/12/18 12:50:56;;;;;;;69.97;49.47;;;;;;;;;;4381676;32;20357;-66
2020/12/18 12:53:22;;;;;;;72.17;52.07;;;;;;;;;;4386406;32;20276;-65
2020/12/18 12:55:50;;;;;;;78.87;50.07;;;;;;;;;;4382712;32;20262;-65
2020/12/18 12:58:19;;;;;;;76.57;52.87;;;;;;;;;;4368982;32;20739;-64
2020/12/18 13:00:45;;;;;;;79.43;53.60;;;;;;;;;;4386740;32;20252;-64
2020/12/18 13:03:11;;;;;;;81.40;56.70;;;;;;;;;;4379978;32;20279;-65
2020/12/18 13:05:38;;;;;;;86.23;56.97;;;;;;;;;;4380377;32;20226;-65
2020/12/18 13:08:05;;;;;;;88.53;62.07;;;;;;;;;;4387740;32;20267;-65
2020/12/18 13:10:32;;;;;;;93.63;60.67;;;;;;;;;;4387292;32;20245;-66
2020/12/18 13:13:00;;;;;;;96.87;62.90;;;;;;;;;;4386441;32;20262;-65
2020/12/18 13:15:26;;;;;;;105.23;63.23;;;;;;;;;;4384883;32;20729;-66
2020/12/18 13:17:51;;;;;;;114.40;72.53;;;;;;;;;;4353424;32;20264;-65
2020/12/18 13:20:16;;;;;;;106.70;71.57;;;;;;;;;;4383238;32;20301;-65
2020/12/18 13:22:42;;;;;;;105.77;71.00;;;;;;;;;;4362910;32;20225;-67
2020/12/18 13:25:08;;;;;;;133.57;86.27;;;;;;;;;;4387089;32;20703;-66
2020/12/18 13:27:33;;;;;;;123.20;81.37;;;;;;;;;;4368105;32;20234;-66
2020/12/18 13:29:59;;;;;;;100.17;67.13;;;;;;;;;;4372405;32;20348;-65
2020/12/18 13:32:24;;;;;;;91.80;61.27;;;;;;;;;;4368320;32;20340;-64
2020/12/18 13:34:50;;;;;;;99.33;65.93;;;;;;;;;;4371468;32;20230;-65
2020/12/18 13:37:15;;;;;;;95.07;64.20;;;;;;;;;;4382569;32;20352;-65
2020/12/18 13:39:40;;;;;;;86.00;57.10;;;;;;;;;;4384363;32;20214;-64
2020/12/18 13:42:06;;;;;;;87.10;56.90;;;;;;;;;;4380992;32;20435;-66
2020/12/18 13:44:31;;;;;;;86.17;56.03;;;;;;;;;;4383123;32;20279;-65
2020/12/18 13:46:57;;;;;;;90.70;57.67;;;;;;;;;;4383847;32;20206;-66
2020/12/18 13:49:23;;;;;;;81.23;54.10;;;;;;;;;;4385470;32;20312;-65
2020/12/18 13:51:49;;;;;;;78.77;51.57;;;;;;;;;;4386802;32;20343;-65
2020/12/18 13:54:15;;;;;;;62.30;45.37;;;;;;;;;;4384386;32;20313;-65
2020/12/18 13:56:45;;;;;;;73.50;46.17;;;;;;;;;;4387058;32;20648;-65
2020/12/18 13:59:10;;;;;;;83.37;50.83;;;;;;;;;;4387384;32;20230;-65
2020/12/18 14:01:37;;;;;;;78.53;51.90;;;;;;;;;;4371979;32;21044;-65
2020/12/18 14:04:03;;;;;;;92.00;58.30;;;;;;;;;;4359034;32;20352;-65
2020/12/18 14:06:29;;;;;;;79.87;53.47;;;;;;;;;;4383156;32;20536;-65
2020/12/18 14:08:54;;;;;;;83.83;57.00;;;;;;;;;;4367404;32;20261;-65
2020/12/18 14:11:20;;;;;;;84.20;57.87;;;;;;;;;;4375367;32;20367;-64
2020/12/18 14:13:45;;;;;;;91.93;59.30;;;;;;;;;;4375798;32;20356;-64
2020/12/18 14:16:11;;;;;;;88.63;58.43;;;;;;;;;;4376551;32;20234;-65
2020/12/18 14:18:36;;;;;;;89.47;60.43;;;;;;;;;;4378861;32;20400;-64
2020/12/18 14:21:03;;;;;;;95.57;60.30;;;;;;;;;;4383426;32;20651;-64